Time;durP1;ratioP1;P1;durP2;ratioP2;P2;SDS_P1;SDS_P2;PMS_P1;PMS_P2;Temp;Humidity;BMP_temperature;BMP_pressure;BME280_temperature;BME280_humidity;BME280_pressure;Samples;Min_cycle;Max_cycle;Signal;HPM_P1;HPM_P2
2022/04/21 00:00:37;;;;;;;5.90;3.92;;;11.60;99.90;;;;;;5089513;28;20794;-55
2022/04/21 00:03:04;;;;;;;6.07;4.13;;;11.60;99.90;;;;;;5089830;28;20409;-56
2022/04/21 00:05:30;;;;;;;5.45;4.10;;;11.60;99.90;;;;;;5089575;28;20382;-58
2022/04/21 00:07:56;;;;;;;5.40;3.88;;;11.60;99.90;;;;;;5090123;28;20486;-57
2022/04/21 00:10:23;;;;;;;7.05;4.18;;;11.60;99.90;;;;;;5088269;28;20390;-58
2022/04/21 00:12:49;;;;;;;4.75;3.92;;;11.50;99.90;;;;;;5088692;28;20521;-57
2022/04/21 00:15:15;;;;;;;4.78;4.28;;;11.50;99.90;;;;;;5089292;28;20632;-58
2022/04/21 00:17:40;;;;;;;6.90;4.22;;;11.50;99.90;;;;;;5089340;28;20450;-58
2022/04/21 00:20:07;;;;;;;7.03;3.83;;;11.50;99.90;;;;;;5088454;28;20921;-55
2022/04/21 00:25:17;;;;;;;6.47;4.25;;;11.50;99.90;;;;;;5087811;28;20389;-58
2022/04/21 00:27:44;;;;;;;4.70;4.05;;;11.40;99.90;;;;;;5086937;28;20377;-56
2022/04/21 00:30:11;;;;;;;6.05;4.00;;;11.40;99.90;;;;;;5087210;28;20450;-58
2022/04/21 00:32:39;;;;;;;5.55;4.18;;;11.40;99.90;;;;;;5085934;28;20470;-57
2022/04/21 00:35:07;;;;;;;6.38;3.92;;;11.30;99.90;;;;;;5087317;28;20577;-57
2022/04/21 00:37:32;;;;;;;5.07;4.18;;;11.20;99.90;;;;;;5087130;28;20389;-58
2022/04/21 00:39:59;;;;;;;5.13;4.03;;;11.20;99.90;;;;;;5087678;28;20374;-58
2022/04/21 00:42:24;;;;;;;4.57;3.97;;;11.20;99.90;;;;;;5088058;28;20801;-59
2022/04/21 00:44:50;;;;;;;5.07;3.83;;;11.10;99.90;;;;;;5070454;28;20534;-54
2022/04/21 00:47:16;;;;;;;5.30;4.18;;;11.10;99.90;;;;;;5087242;28;20390;-56
2022/04/21 00:49:43;;;;;;;4.82;4.10;;;11.10;99.90;;;;;;5084146;28;20385;-57
2022/04/21 00:52:09;;;;;;;4.45;3.92;;;11.00;99.90;;;;;;5083106;28;20738;-56
2022/04/21 00:54:35;;;;;;;5.63;4.00;;;11.10;99.90;;;;;;5084235;28;20841;-59
2022/04/21 00:57:01;;;;;;;4.53;4.10;;;11.00;99.90;;;;;;5085505;28;20378;-59
2022/04/21 00:59:27;;;;;;;5.40;4.13;;;10.90;99.90;;;;;;5086101;28;20467;-58
2022/04/21 01:04:41;;;;;;;4.70;4.00;;;10.90;99.90;;;;;;5088250;28;20725;-59
2022/04/21 01:07:10;;;;;;;4.93;3.88;;;10.90;99.90;;;;;;5089826;28;20662;-59
2022/04/21 01:09:37;;;;;;;7.15;4.40;;;10.90;99.90;;;;;;5091482;28;20468;-59
2022/04/21 01:12:10;;;;;;;5.07;4.03;;;10.80;99.90;;;;;;5091902;28;20390;-58
2022/04/21 01:14:39;;;;;;;6.20;4.07;;;10.80;99.90;;;;;;5089500;28;20763;-59
2022/04/21 01:17:09;;;;;;;6.50;3.97;;;10.70;99.90;;;;;;5088549;28;20392;-56
2022/04/21 01:19:35;;;;;;;4.78;4.00;;;10.70;99.90;;;;;;5088870;28;20712;-59
2022/04/21 01:22:00;;;;;;;6.38;4.07;;;10.70;99.90;;;;;;5088377;28;20513;-57
2022/04/21 01:24:29;;;;;;;7.03;4.13;;;10.70;99.90;;;;;;5087576;28;20659;-57
2022/04/21 01:26:56;;;;;;;6.22;4.25;;;10.60;99.90;;;;;;5085406;28;20556;-57
2022/04/21 01:29:21;;;;;;;5.20;3.85;;;10.50;99.90;;;;;;5086764;28;20463;-54
2022/04/21 01:31:47;;;;;;;5.77;3.93;;;10.50;99.90;;;;;;5088492;28;20386;-58
2022/04/21 01:34:12;;;;;;;5.93;4.00;;;10.60;99.90;;;;;;5090029;28;20932;-57
2022/04/21 01:41:08;;;;;;;5.70;4.10;;;10.50;99.90;;;;;;5089060;28;20389;-57
2022/04/21 01:42:15;;;;;;;6.43;4.00;;;10.40;99.90;;;;;;5088318;28;20385;-57
2022/04/21 01:44:43;;;;;;;5.20;4.22;;;10.40;99.90;;;;;;5087965;28;20458;-57
2022/04/21 01:47:08;;;;;;;4.63;3.93;;;10.40;99.90;;;;;;5090325;28;20772;-58
2022/04/21 01:49:34;;;;;;;5.10;4.27;;;10.30;99.90;;;;;;5089804;28;20386;-59
2022/04/21 01:51:59;;;;;;;6.35;4.40;;;10.30;99.90;;;;;;5088868;28;20386;-56
2022/04/21 01:54:25;;;;;;;5.90;4.20;;;10.30;99.90;;;;;;5092163;28;20412;-58
2022/04/21 01:56:50;;;;;;;8.10;3.90;;;10.20;99.90;;;;;;5094537;28;20388;-56
2022/04/21 01:59:16;;;;;;;4.67;3.83;;;10.30;99.90;;;;;;5094649;28;20397;-59
2022/04/21 02:01:41;;;;;;;8.03;4.47;;;10.20;99.90;;;;;;5094538;28;20789;-54
2022/04/21 02:04:07;;;;;;;6.68;4.07;;;10.20;99.90;;;;;;5094512;28;20424;-58
2022/04/21 02:06:32;;;;;;;7.37;4.40;;;10.20;99.90;;;;;;5093672;28;20739;-56
2022/04/21 02:08:59;;;;;;;5.47;3.80;;;10.20;99.90;;;;;;5094016;28;20405;-59
2022/04/21 02:11:24;;;;;;;5.90;4.10;;;10.20;99.90;;;;;;5095576;28;20481;-58
2022/04/21 02:13:51;;;;;;;5.50;3.70;;;10.10;99.90;;;;;;5091071;28;20875;-58
2022/04/21 02:16:17;;;;;;;5.17;3.93;;;10.10;99.90;;;;;;5057951;28;20874;-56
2022/04/21 02:18:42;;;;;;;4.97;3.73;;;10.00;99.90;;;;;;5057513;28;20375;-59
2022/04/21 02:21:08;;;;;;;5.13;4.13;;;10.00;99.90;;;;;;5057198;28;20386;-59
2022/04/21 02:23:33;;;;;;;5.07;3.87;;;10.00;99.90;;;;;;5060625;28;20388;-58
2022/04/21 02:25:59;;;;;;;4.93;4.10;;;10.00;99.90;;;;;;5078551;28;20532;-56
2022/04/21 02:28:25;;;;;;;4.97;3.60;;;10.10;99.90;;;;;;5060328;28;20799;-58
2022/04/21 02:30:50;;;;;;;4.78;4.03;;;10.00;99.90;;;;;;5061206;28;20856;-59
2022/04/21 02:33:16;;;;;;;5.43;3.93;;;10.00;99.90;;;;;;5060905;28;20392;-60
2022/04/21 02:35:41;;;;;;;4.57;4.13;;;10.00;99.90;;;;;;5060687;28;20409;-59
2022/04/21 02:38:07;;;;;;;5.00;4.50;;;9.90;99.90;;;;;;5061060;28;20668;-59
2022/04/21 02:40:32;;;;;;;6.47;4.03;;;10.00;99.90;;;;;;5060745;28;20402;-56
2022/04/21 02:43:05;;;;;;;5.30;3.93;;;9.90;99.90;;;;;;5059768;28;20431;-59
2022/04/21 02:45:30;;;;;;;6.03;4.25;;;9.80;99.90;;;;;;5078459;28;20396;-59
2022/04/21 02:47:56;;;;;;;4.72;3.67;;;9.80;99.90;;;;;;5077983;28;20464;-59
2022/04/21 02:50:21;;;;;;;7.60;3.93;;;9.80;99.90;;;;;;5077461;28;20391;-55
2022/04/21 02:52:47;;;;;;;5.20;4.07;;;9.80;99.90;;;;;;5058360;28;20376;-59
2022/04/21 02:57:59;;;;;;;5.88;4.20;;;9.80;99.90;;;;;;5076689;28;20387;-59
2022/04/21 03:00:25;;;;;;;5.70;3.92;;;9.80;99.90;;;;;;5058836;28;20402;-59
2022/04/21 03:02:50;;;;;;;6.20;4.13;;;9.80;99.90;;;;;;5076797;28;20482;-59
2022/04/21 03:05:16;;;;;;;8.23;4.27;;;9.80;99.90;;;;;;5059435;28;20471;-59
2022/04/21 03:07:48;;;;;;;5.10;3.88;;;9.70;99.90;;;;;;5058729;28;20680;-55
2022/04/21 03:10:14;;;;;;;4.80;3.90;;;9.70;99.90;;;;;;5075626;28;20387;-58
2022/04/21 03:12:40;;;;;;;6.15;4.30;;;9.70;99.90;;;;;;5057852;28;20391;-56
2022/04/21 03:15:06;;;;;;;7.03;4.40;;;9.70;99.90;;;;;;5083569;28;20831;-58
2022/04/21 03:17:32;;;;;;;9.75;4.22;;;9.70;99.90;;;;;;5096643;28;20469;-59
2022/04/21 03:19:57;;;;;;;6.83;4.30;;;9.60;99.90;;;;;;5095604;28;20735;-58
2022/04/21 03:25:10;;;;;;;5.63;4.28;;;9.50;99.90;;;;;;5097130;28;21072;-55
2022/04/21 03:27:36;;;;;;;5.25;4.18;;;9.50;99.90;;;;;;5097755;28;20397;-58
2022/04/21 03:30:05;;;;;;;7.07;4.30;;;9.50;99.90;;;;;;5096687;28;20394;-59
2022/04/21 03:32:31;;;;;;;5.65;4.50;;;9.50;99.90;;;;;;5096457;28;20386;-55
2022/04/21 03:34:58;;;;;;;5.07;4.10;;;9.50;99.90;;;;;;5096462;28;20401;-52
2022/04/21 03:37:23;;;;;;;5.28;4.20;;;9.50;99.90;;;;;;5096921;28;20378;-56
2022/04/21 03:39:49;;;;;;;4.95;4.45;;;9.50;99.90;;;;;;5095578;28;20497;-59
2022/04/21 03:42:19;;;;;;;6.57;4.77;;;9.50;99.90;;;;;;5096172;28;20513;-51
2022/04/21 03:44:45;;;;;;;6.10;4.38;;;9.50;99.90;;;;;;5095635;28;20394;-57
2022/04/21 03:47:11;;;;;;;5.15;4.55;;;9.50;99.90;;;;;;5095614;28;20396;-59
2022/04/21 03:49:46;;;;;;;6.43;4.50;;;9.40;99.90;;;;;;5094988;28;20597;-57
2022/04/21 03:52:12;;;;;;;6.70;4.65;;;9.30;99.90;;;;;;5094816;28;20429;-58
2022/04/21 03:54:38;;;;;;;7.80;4.63;;;9.30;99.90;;;;;;5094857;28;20509;-58
2022/04/21 03:57:05;;;;;;;6.93;4.45;;;9.30;99.90;;;;;;5096536;28;20382;-55
2022/04/21 03:59:30;;;;;;;7.80;4.80;;;9.20;99.90;;;;;;5095944;28;20837;-58
2022/04/21 04:02:02;;;;;;;7.83;4.77;;;9.20;99.90;;;;;;5094000;28;20424;-52
2022/04/21 04:04:28;;;;;;;5.45;4.40;;;9.20;99.90;;;;;;5091896;28;20378;-60
2022/04/21 04:12:23;;;;;;;5.95;4.68;;;9.20;99.90;;;;;;5093366;28;20388;-58
2022/04/21 04:14:49;;;;;;;7.95;4.70;;;9.10;99.90;;;;;;5093475;28;20420;-57
2022/04/21 04:17:14;;;;;;;7.20;4.77;;;9.10;99.90;;;;;;5094412;28;20700;-58
2022/04/21 04:19:40;;;;;;;6.43;4.33;;;9.10;99.90;;;;;;5091726;28;20378;-59
2022/04/21 04:22:06;;;;;;;9.38;4.90;;;9.10;99.90;;;;;;5093776;28;20444;-56
2022/04/21 04:24:31;;;;;;;6.90;4.90;;;9.10;99.90;;;;;;5093562;28;20386;-57
2022/04/21 04:27:03;;;;;;;6.63;4.28;;;9.10;99.90;;;;;;5093552;28;20433;-58
2022/04/21 04:29:29;;;;;;;6.32;4.80;;;9.10;99.90;;;;;;5092381;28;20401;-58
2022/04/21 04:31:57;;;;;;;7.43;4.33;;;9.10;99.90;;;;;;5092777;28;20736;-58
2022/04/21 04:34:22;;;;;;;6.47;4.57;;;9.10;99.90;;;;;;5093463;28;21017;-61
2022/04/21 04:36:48;;;;;;;6.83;4.40;;;9.10;99.90;;;;;;5091715;28;20466;-58
2022/04/21 04:39:15;;;;;;;6.47;4.32;;;9.10;99.90;;;;;;5091669;28;20765;-59
2022/04/21 04:44:25;;;;;;;5.15;3.95;;;9.10;99.90;;;;;;5092356;28;20943;-57
2022/04/21 04:46:50;;;;;;;6.77;4.23;;;9.10;99.90;;;;;;5091569;28;20495;-58
2022/04/21 04:49:16;;;;;;;6.65;3.78;;;9.10;99.90;;;;;;5090115;28;20458;-59
2022/04/21 04:51:43;;;;;;;5.93;4.03;;;9.20;99.90;;;;;;5091487;28;20382;-59
2022/04/21 04:54:13;;;;;;;6.07;4.22;;;9.20;99.90;;;;;;5091574;28;20797;-59
2022/04/21 04:56:40;;;;;;;6.18;4.13;;;9.20;99.90;;;;;;5091764;28;20389;-59
2022/04/21 04:59:06;;;;;;;9.03;3.83;;;9.20;99.90;;;;;;5090711;28;20398;-58
2022/04/21 05:01:43;;;;;;;4.80;3.73;;;9.20;99.90;;;;;;5090491;28;20393;-57
2022/04/21 05:04:11;;;;;;;5.10;4.07;;;9.30;99.90;;;;;;5089421;28;20378;-55
2022/04/21 05:06:50;;;;;;;4.85;4.13;;;9.20;99.90;;;;;;5087994;28;20397;-57
2022/04/21 05:09:17;;;;;;;4.90;4.10;;;9.20;99.90;;;;;;5089717;28;20382;-59
2022/04/21 05:11:48;;;;;;;6.32;3.78;;;9.20;99.90;;;;;;5090501;28;21016;-57
2022/04/21 05:14:14;;;;;;;7.57;4.07;;;9.30;99.90;;;;;;5092197;28;20522;-59
2022/04/21 05:16:40;;;;;;;7.30;4.00;;;9.30;99.90;;;;;;5092041;28;20378;-57
2022/04/21 05:19:11;;;;;;;6.80;4.00;;;9.30;99.90;;;;;;5092518;28;20389;-57
2022/04/21 05:21:37;;;;;;;6.15;4.30;;;9.30;99.90;;;;;;5092334;28;20385;-59
2022/04/21 05:24:05;;;;;;;6.55;4.03;;;9.30;99.90;;;;;;5092703;28;20406;-57
2022/04/21 05:26:32;;;;;;;6.88;3.97;;;9.40;99.90;;;;;;5092789;28;20800;-58
2022/04/21 05:28:59;;;;;;;4.65;3.70;;;9.40;99.90;;;;;;5092737;28;20454;-59
2022/04/21 05:31:26;;;;;;;6.45;4.40;;;9.40;99.90;;;;;;5092547;28;20469;-58
2022/04/21 05:33:55;;;;;;;3.72;3.22;;;9.40;99.90;;;;;;5092283;28;20447;-58
2022/04/21 05:36:21;;;;;;;5.93;3.90;;;9.40;99.90;;;;;;5090971;28;20718;-57
2022/04/21 05:38:51;;;;;;;5.45;3.72;;;9.50;99.90;;;;;;5091466;28;20405;-59
2022/04/21 05:41:18;;;;;;;4.72;3.40;;;9.50;99.90;;;;;;5091786;28;20693;-58
2022/04/21 05:43:45;;;;;;;6.82;3.72;;;9.60;99.90;;;;;;5091852;28;20422;-56
2022/04/21 05:46:15;;;;;;;4.45;3.40;;;9.60;99.90;;;;;;5091730;28;20426;-54
2022/04/21 05:48:42;;;;;;;5.10;3.72;;;9.60;99.90;;;;;;5090591;28;20382;-56
2022/04/21 05:51:09;;;;;;;6.53;3.67;;;9.70;99.90;;;;;;5090745;28;20386;-57
2022/04/21 05:53:37;;;;;;;5.10;3.75;;;9.80;99.90;;;;;;5091145;28;20872;-59
2022/04/21 05:56:07;;;;;;;7.10;3.92;;;9.80;99.90;;;;;;5090067;28;20401;-58
2022/04/21 05:58:36;;;;;;;4.97;3.22;;;9.80;99.90;;;;;;5091428;28;20402;-58
2022/04/21 06:01:06;;;;;;;4.40;3.40;;;9.90;99.90;;;;;;5092809;28;20406;-57
2022/04/21 06:03:32;;;;;;;5.40;3.47;;;10.00;99.90;;;;;;5093009;28;20370;-56
2022/04/21 06:05:58;;;;;;;3.78;3.30;;;10.10;99.90;;;;;;5092581;28;20737;-58
2022/04/21 06:08:24;;;;;;;4.90;3.03;;;10.10;99.90;;;;;;5092007;28;20973;-58
2022/04/21 06:10:50;;;;;;;5.00;3.03;;;10.20;99.90;;;;;;5091580;28;20389;-58
2022/04/21 06:13:15;;;;;;;4.28;3.10;;;10.20;99.90;;;;;;5092476;28;20482;-58
2022/04/21 06:15:42;;;;;;;3.70;2.70;;;10.30;99.90;;;;;;5092665;28;20497;-59
2022/04/21 06:18:08;;;;;;;4.30;2.92;;;10.30;99.90;;;;;;5092946;28;20386;-56
2022/04/21 06:20:35;;;;;;;4.47;2.87;;;10.40;99.90;;;;;;5091642;28;20563;-59
2022/04/21 06:23:01;;;;;;;3.33;2.80;;;10.40;99.90;;;;;;5091714;28;20374;-59
2022/04/21 06:25:26;;;;;;;3.07;2.60;;;10.50;99.90;;;;;;5094161;28;20801;-60
2022/04/21 06:27:53;;;;;;;3.03;2.60;;;10.50;99.90;;;;;;5093295;28;20954;-56
2022/04/21 06:30:19;;;;;;;3.23;2.50;;;10.50;99.90;;;;;;5092039;28;20402;-59
2022/04/21 06:32:45;;;;;;;2.75;2.45;;;10.60;99.90;;;;;;5091534;28;20401;-56
2022/04/21 06:35:10;;;;;;;4.65;2.33;;;10.70;99.90;;;;;;5093006;28;20434;-58
2022/04/21 06:37:36;;;;;;;3.00;2.20;;;10.70;99.90;;;;;;5093825;28;20386;-59
2022/04/21 06:40:05;;;;;;;3.60;2.33;;;10.70;99.90;;;;;;5092466;28;20424;-60
2022/04/21 06:42:31;;;;;;;3.33;2.55;;;10.80;99.90;;;;;;5091123;28;20374;-57
2022/04/21 06:50:25;;;;;;;3.80;2.50;;;10.90;99.90;;;;;;5093796;28;20425;-57
2022/04/21 06:52:50;;;;;;;3.80;2.57;;;10.90;99.90;;;;;;5091882;28;20413;-59
2022/04/21 06:55:15;;;;;;;2.90;2.40;;;10.90;99.90;;;;;;5091410;28;20398;-58
2022/04/21 06:57:41;;;;;;;4.07;2.33;;;11.00;99.90;;;;;;5091651;28;20446;-59
2022/04/21 07:00:09;;;;;;;5.07;2.80;;;11.00;99.90;;;;;;5090423;28;20400;-57
2022/04/21 07:02:38;;;;;;;3.97;2.40;;;11.00;99.90;;;;;;5091333;28;20860;-58
2022/04/21 07:05:12;;;;;;;2.63;2.13;;;11.10;99.90;;;;;;5090710;28;20735;-59
2022/04/21 07:07:39;;;;;;;2.50;2.30;;;11.20;99.90;;;;;;5090264;28;20389;-58
2022/04/21 07:10:05;;;;;;;2.50;2.30;;;11.20;99.90;;;;;;5090665;28;20885;-56
2022/04/21 07:12:32;;;;;;;2.40;2.03;;;11.30;99.90;;;;;;5089869;28;20481;-59
2022/04/21 07:14:59;;;;;;;2.63;1.83;;;11.40;99.90;;;;;;5091654;28;20418;-59
2022/04/21 07:17:24;;;;;;;2.60;2.10;;;11.40;99.90;;;;;;5093041;28;20378;-59
2022/04/21 07:19:50;;;;;;;3.03;2.13;;;11.40;99.90;;;;;;5091762;28;20469;-59
2022/04/21 07:22:18;;;;;;;4.47;2.20;;;11.50;99.90;;;;;;5091998;28;20382;-59
2022/04/21 07:24:43;;;;;;;3.38;2.00;;;11.50;99.90;;;;;;5091349;28;20390;-58
2022/04/21 07:27:09;;;;;;;3.10;2.10;;;11.60;99.90;;;;;;5093266;28;20393;-59
2022/04/21 07:29:35;;;;;;;4.30;2.08;;;11.70;99.90;;;;;;5093600;28;20412;-58
2022/04/21 07:32:00;;;;;;;2.60;2.00;;;11.70;99.90;;;;;;5092504;28;20413;-59
2022/04/21 07:34:26;;;;;;;2.10;1.90;;;11.80;99.90;;;;;;5091922;28;20467;-58
2022/04/21 07:36:51;;;;;;;2.10;1.73;;;11.90;99.90;;;;;;5092391;28;20382;-58
2022/04/21 07:39:22;;;;;;;4.07;2.20;;;11.90;99.90;;;;;;5091426;28;20806;-59
2022/04/21 07:41:48;;;;;;;3.35;1.90;;;12.00;99.90;;;;;;5092939;28;20394;-58
2022/04/21 07:44:13;;;;;;;4.60;2.30;;;12.10;99.90;;;;;;5093002;28;20485;-56
2022/04/21 07:46:39;;;;;;;2.83;1.93;;;12.10;99.90;;;;;;5093424;28;20393;-59
2022/04/21 07:51:49;;;;;;;3.75;2.20;;;12.10;99.90;;;;;;5093007;28;20895;-59
2022/04/21 07:54:14;;;;;;;2.20;2.00;;;12.20;99.90;;;;;;5091722;28;20713;-58
2022/04/21 07:56:40;;;;;;;3.28;2.00;;;12.20;99.90;;;;;;5091593;28;20384;-57
2022/04/21 07:59:05;;;;;;;2.03;1.70;;;12.30;99.90;;;;;;5092873;28;20921;-57
2022/04/21 08:01:31;;;;;;;4.00;1.77;;;12.40;99.90;;;;;;5094384;28;20558;-59
2022/04/21 08:04:02;;;;;;;7.00;1.80;;;12.40;99.90;;;;;;5092109;28;20777;-56
2022/04/21 08:06:38;;;;;;;2.75;1.70;;;12.50;99.90;;;;;;5093503;28;20433;-59
2022/04/21 08:09:04;;;;;;;2.60;1.58;;;12.50;99.90;;;;;;5092726;28;20388;-58
2022/04/21 08:11:29;;;;;;;2.50;1.80;;;12.50;99.90;;;;;;5092478;28;20374;-59
2022/04/21 08:13:56;;;;;;;3.03;1.73;;;12.50;99.90;;;;;;5089093;28;20424;-58
2022/04/21 08:16:21;;;;;;;5.40;1.90;;;12.50;99.90;;;;;;5052114;28;20380;-58
2022/04/21 08:18:52;;;;;;;3.63;1.70;;;12.40;99.90;;;;;;5050769;28;20587;-54
2022/04/21 08:21:18;;;;;;;2.10;1.63;;;12.50;99.90;;;;;;5068139;28;20372;-57
2022/04/21 08:23:44;;;;;;;4.13;1.67;;;12.50;99.90;;;;;;5067851;28;21126;-58
2022/04/21 08:34:25;;;;;;;2.67;1.45;;;12.70;99.90;;;;;;5070114;28;20411;-53
2022/04/21 08:36:51;;;;;;;2.95;1.50;;;12.80;99.90;;;;;;5052634;28;20404;-59
2022/04/21 08:39:17;;;;;;;3.42;1.80;;;12.90;99.90;;;;;;5051483;28;20436;-57
2022/04/21 08:41:51;;;;;;;3.17;1.80;;;13.00;99.90;;;;;;5051636;28;20420;-56
2022/04/21 08:44:21;;;;;;;3.42;2.10;;;13.10;99.90;;;;;;5051275;28;20406;-58
2022/04/21 08:46:50;;;;;;;3.38;2.00;;;13.10;99.90;;;;;;5052690;28;20445;-57
2022/04/21 08:49:18;;;;;;;5.10;1.70;;;13.20;99.90;;;;;;5052434;28;20394;-58
2022/04/21 08:51:46;;;;;;;4.45;1.70;;;13.30;99.90;;;;;;5051551;28;20383;-58
2022/04/21 08:54:14;;;;;;;2.80;1.65;;;13.30;99.90;;;;;;5068788;28;20409;-58
2022/04/21 08:56:41;;;;;;;2.80;1.90;;;13.40;99.90;;;;;;5053367;28;20387;-58
2022/04/21 08:59:07;;;;;;;2.60;1.93;;;13.40;99.90;;;;;;5051696;28;20399;-58
2022/04/21 09:01:34;;;;;;;2.73;1.70;;;13.50;99.90;;;;;;5069302;28;20383;-57
2022/04/21 09:04:01;;;;;;;3.80;1.67;;;13.50;99.90;;;;;;5050786;28;21048;-57
2022/04/21 09:06:27;;;;;;;2.72;1.65;;;13.60;99.90;;;;;;5049410;28;20854;-52
2022/04/21 09:09:14;;;;;;;3.08;1.73;;;13.60;99.90;;;;;;5066715;28;20470;-56
2022/04/21 09:11:42;;;;;;;2.80;1.70;;;13.70;99.90;;;;;;5029751;28;20666;-57
2022/04/21 09:14:15;;;;;;;3.10;1.80;;;13.80;99.90;;;;;;5056395;28;20520;-53
2022/04/21 09:16:41;;;;;;;2.63;1.60;;;13.90;99.90;;;;;;5064534;28;20385;-57
2022/04/21 09:19:07;;;;;;;4.03;1.85;;;14.10;99.90;;;;;;5081781;28;20834;-57
2022/04/21 09:21:37;;;;;;;4.20;1.92;;;14.20;99.90;;;;;;5081833;28;20406;-58
2022/04/21 09:24:25;;;;;;;3.88;1.75;;;14.30;99.90;;;;;;5048782;28;20391;-57
2022/04/21 09:26:55;;;;;;;3.43;2.10;;;14.40;99.90;;;;;;5087185;28;20823;-57
2022/04/21 09:29:33;;;;;;;3.95;1.95;;;14.30;99.90;;;;;;5087261;28;20469;-63
2022/04/21 09:32:02;;;;;;;3.60;1.90;;;14.40;99.90;;;;;;5091704;28;20489;-59
2022/04/21 09:34:29;;;;;;;3.67;1.70;;;14.40;99.90;;;;;;5094765;28;20484;-58
2022/04/21 09:36:59;;;;;;;3.60;1.70;;;14.40;99.90;;;;;;5095272;28;20401;-57
2022/04/21 09:39:24;;;;;;;1.95;1.48;;;14.40;99.90;;;;;;5092764;28;20378;-58
2022/04/21 09:41:54;;;;;;;3.10;2.00;;;14.40;99.90;;;;;;5093077;28;20413;-58
2022/04/21 09:47:20;;;;;;;3.03;1.85;;;14.40;99.90;;;;;;5092207;28;20384;-58
2022/04/21 09:49:47;;;;;;;2.10;1.50;;;14.40;99.90;;;;;;5091421;28;20393;-59
2022/04/21 09:52:28;;;;;;;3.83;1.98;;;14.40;99.90;;;;;;5091189;28;20620;-59
2022/04/21 09:54:55;;;;;;;2.80;1.63;;;14.40;99.90;;;;;;5090680;28;20389;-59
2022/04/21 09:57:31;;;;;;;2.65;1.60;;;14.40;99.90;;;;;;5092187;28;20676;-56
2022/04/21 09:59:58;;;;;;;2.47;1.55;;;14.40;99.90;;;;;;5093621;28;20481;-58
2022/04/21 10:02:29;;;;;;;3.30;1.40;;;14.60;99.90;;;;;;5092271;28;20495;-57
2022/04/21 10:04:56;;;;;;;2.28;1.55;;;14.60;99.90;;;;;;5075114;28;20484;-58
2022/04/21 10:07:24;;;;;;;5.00;2.15;;;14.60;99.90;;;;;;5090930;28;20405;-58
2022/04/21 10:09:50;;;;;;;2.72;1.55;;;14.60;99.90;;;;;;5089814;28;20399;-58
2022/04/21 10:12:17;;;;;;;2.80;1.60;;;14.50;99.90;;;;;;5089433;28;20405;-58
2022/04/21 10:14:47;;;;;;;3.47;1.60;;;14.60;99.90;;;;;;5089918;28;20464;-57
2022/04/21 10:17:13;;;;;;;2.80;1.70;;;14.60;99.90;;;;;;5089800;28;20381;-58
2022/04/21 10:19:40;;;;;;;3.72;1.73;;;14.80;99.90;;;;;;5090263;28;20388;-58
2022/04/21 10:22:14;;;;;;;2.80;1.70;;;14.90;99.90;;;;;;5090508;28;20393;-59
2022/04/21 10:24:41;;;;;;;3.17;1.50;;;15.00;99.90;;;;;;5091050;28;20682;-58
2022/04/21 10:27:44;;;;;;;5.30;2.00;;;15.10;99.90;;;;;;5091136;28;20477;-59
2022/04/21 10:30:31;;;;;;;3.40;2.22;;;15.20;99.90;;;;;;5092062;28;20374;-59
2022/04/21 10:33:01;;;;;;;3.75;2.25;;;15.20;99.90;;;;;;5091563;28;20389;-59
2022/04/21 10:35:34;;;;;;;4.15;2.22;;;15.20;99.90;;;;;;5087349;28;20514;-58
2022/04/21 10:38:14;;;;;;;4.17;1.93;;;15.20;99.90;;;;;;5092306;28;20386;-58
2022/04/21 10:41:03;;;;;;;3.95;2.08;;;15.40;99.90;;;;;;5092323;28;20427;-60
2022/04/21 10:43:52;;;;;;;3.35;2.10;;;15.70;99.90;;;;;;5090256;28;21018;-59
2022/04/21 10:46:21;;;;;;;5.18;1.90;;;15.90;99.90;;;;;;5089600;28;20389;-58
2022/04/21 10:48:46;;;;;;;2.35;1.80;;;15.90;99.90;;;;;;5090928;28;20398;-58
2022/04/21 10:51:12;;;;;;;2.60;1.60;;;15.90;99.90;;;;;;5092957;28;20386;-58
2022/04/21 10:59:30;;;;;;;3.58;2.13;;;15.90;99.90;;;;;;5092462;28;20381;-59
2022/04/21 11:02:09;;;;;;;3.60;2.10;;;15.90;99.90;;;;;;5090217;28;20517;-58
2022/04/21 11:04:35;;;;;;;3.03;1.90;;;15.90;99.90;;;;;;5091942;28;20397;-56
2022/04/21 11:07:10;;;;;;;4.67;2.33;;;15.90;99.90;;;;;;5089794;28;20382;-60
2022/04/21 11:09:39;;;;;;;3.15;1.83;;;15.80;99.90;;;;;;5089464;28;20461;-58
2022/04/21 11:12:06;;;;;;;5.68;2.28;;;15.80;99.90;;;;;;5087746;28;20370;-59
2022/04/21 11:14:34;;;;;;;3.53;1.88;;;15.80;99.90;;;;;;5085670;28;20414;-59
2022/04/21 11:17:01;;;;;;;3.00;1.77;;;15.80;99.90;;;;;;5088395;28;20377;-57
2022/04/21 11:19:30;;;;;;;5.70;2.30;;;15.80;99.90;;;;;;5085707;28;20394;-59
2022/04/21 11:22:00;;;;;;;6.30;2.15;;;15.90;99.90;;;;;;5087825;28;20382;-59
2022/04/21 11:24:26;;;;;;;3.63;1.95;;;15.80;99.90;;;;;;5088930;28;20393;-58
2022/04/21 11:26:54;;;;;;;5.03;2.17;;;15.70;99.90;;;;;;5088339;28;20417;-59
2022/04/21 11:29:19;;;;;;;4.65;1.90;;;15.70;99.90;;;;;;5088518;28;20421;-59
2022/04/21 11:31:45;;;;;;;5.07;2.20;;;15.60;99.90;;;;;;5088108;28;20910;-58
2022/04/21 11:34:10;;;;;;;4.18;1.98;;;15.70;99.90;;;;;;5086549;28;20398;-59
2022/04/21 11:36:40;;;;;;;4.07;1.60;;;15.80;99.90;;;;;;5085336;28;20386;-60
2022/04/21 11:39:07;;;;;;;2.92;1.52;;;15.90;99.90;;;;;;5086161;28;20399;-59
2022/04/21 11:41:33;;;;;;;2.75;1.50;;;16.00;99.90;;;;;;5085779;28;20379;-60
2022/04/21 11:44:00;;;;;;;3.42;1.67;;;16.10;99.90;;;;;;5087852;28;20385;-60
2022/04/21 11:46:26;;;;;;;2.50;1.52;;;16.10;99.90;;;;;;5088125;28;20443;-60
2022/04/21 11:49:00;;;;;;;2.27;1.57;;;16.20;99.90;;;;;;5088627;28;20393;-59
2022/04/21 11:51:26;;;;;;;3.93;1.73;;;16.30;99.90;;;;;;5086987;28;20803;-60
2022/04/21 11:53:52;;;;;;;4.97;1.73;;;16.20;99.90;;;;;;5084865;28;20465;-59
2022/04/21 11:56:21;;;;;;;2.60;1.25;;;16.30;99.90;;;;;;5085987;28;20481;-60
2022/04/21 11:58:46;;;;;;;1.50;1.10;;;16.30;99.90;;;;;;5087628;28;20378;-60
2022/04/21 12:06:49;;;;;;;2.95;1.90;;;16.60;99.90;;;;;;5087732;28;20424;-60
2022/04/21 12:09:16;;;;;;;3.08;1.90;;;16.60;99.90;;;;;;5089084;28;20401;-59
2022/04/21 12:11:48;;;;;;;5.38;2.30;;;16.60;99.90;;;;;;5090590;28;20382;-59
2022/04/21 12:14:15;;;;;;;4.77;2.10;;;16.60;99.90;;;;;;5087619;28;20413;-59
2022/04/21 12:16:47;;;;;;;4.20;2.20;;;16.60;99.90;;;;;;5085965;28;20677;-61
2022/04/21 12:19:38;;;;;;;5.55;2.53;;;16.70;99.90;;;;;;5084818;28;20701;-59
2022/04/21 12:22:08;;;;;;;5.03;2.20;;;16.60;99.90;;;;;;5086321;28;20382;-58
2022/04/21 12:24:41;;;;;;;4.05;2.33;;;16.70;99.90;;;;;;5084998;28;20382;-59
2022/04/21 12:27:26;;;;;;;2.97;1.73;;;16.80;99.90;;;;;;5083608;28;20417;-59
2022/04/21 12:29:58;;;;;;;4.68;2.50;;;17.00;99.90;;;;;;5085623;28;20774;-59
2022/04/21 12:32:30;;;;;;;3.88;2.00;;;16.90;99.90;;;;;;5086616;28;20455;-59
2022/04/21 12:34:58;;;;;;;4.45;2.10;;;16.90;99.90;;;;;;5084992;28;20410;-59
2022/04/21 12:37:29;;;;;;;4.43;2.15;;;16.90;99.90;;;;;;5081034;28;20382;-59
2022/04/21 12:39:59;;;;;;;4.05;2.00;;;16.90;99.90;;;;;;5081610;28;20374;-59
2022/04/21 12:42:25;;;;;;;3.47;1.70;;;17.00;99.90;;;;;;5082223;28;20414;-59
2022/04/21 12:44:51;;;;;;;7.30;2.20;;;17.10;99.90;;;;;;5082202;28;20437;-58
2022/04/21 12:47:18;;;;;;;4.57;2.43;;;17.10;99.90;;;;;;5082433;28;20474;-57
2022/04/21 12:50:00;;;;;;;4.00;2.40;;;17.20;99.90;;;;;;5080713;28;20393;-59
2022/04/21 12:52:36;;;;;;;5.85;2.35;;;17.10;99.90;;;;;;5081956;28;20390;-57
2022/04/21 12:55:22;;;;;;;4.13;2.58;;;17.10;99.90;;;;;;5076959;28;20416;-58
2022/04/21 12:58:02;;;;;;;5.87;2.60;;;17.10;99.90;;;;;;5076078;28;20390;-58
2022/04/21 13:00:29;;;;;;;4.68;2.20;;;17.10;99.90;;;;;;5079823;28;20366;-58
2022/04/21 13:02:55;;;;;;;5.40;2.33;;;17.20;99.90;;;;;;5078985;28;20378;-59
2022/04/21 13:05:21;;;;;;;6.07;2.38;;;17.40;99.90;;;;;;5079210;28;20394;-58
2022/04/21 13:07:46;;;;;;;5.47;2.50;;;17.50;99.90;;;;;;5078810;28;20378;-58
2022/04/21 13:10:12;;;;;;;5.25;2.33;;;17.60;99.90;;;;;;5079259;28;20381;-59
2022/04/21 13:12:37;;;;;;;4.20;2.43;;;17.70;99.90;;;;;;5079134;28;20382;-58
2022/04/21 13:15:04;;;;;;;6.28;2.20;;;17.70;99.90;;;;;;5078773;28;20826;-58
2022/04/21 13:17:31;;;;;;;5.40;2.35;;;17.50;99.90;;;;;;5061168;28;21058;-59
2022/04/21 13:19:56;;;;;;;4.90;2.22;;;17.50;99.90;;;;;;5079253;28;20401;-59
2022/04/21 13:22:22;;;;;;;4.90;2.42;;;17.40;99.90;;;;;;5078983;28;20390;-58
2022/04/21 13:24:47;;;;;;;2.97;2.00;;;17.40;99.90;;;;;;5077817;28;20477;-57
2022/04/21 13:27:16;;;;;;;4.17;2.17;;;17.30;99.90;;;;;;5079083;28;20673;-56
2022/04/21 13:29:42;;;;;;;5.03;2.47;;;17.20;99.90;;;;;;5080958;28;20534;-57
2022/04/21 13:34:52;;;;;;;5.20;2.70;;;16.90;99.90;;;;;;5078884;28;20425;-59
2022/04/21 13:37:17;;;;;;;4.37;2.50;;;16.70;99.90;;;;;;5080111;28;20406;-56
2022/04/21 13:39:43;;;;;;;6.33;2.37;;;16.70;99.90;;;;;;5081088;28;20909;-59
2022/04/21 13:42:09;;;;;;;4.65;2.40;;;16.80;99.90;;;;;;5081364;28;20397;-59
2022/04/21 13:44:34;;;;;;;4.63;2.50;;;16.80;99.90;;;;;;5083918;28;20413;-58
2022/04/21 13:47:00;;;;;;;7.37;2.80;;;16.80;99.90;;;;;;5081281;28;20378;-58
2022/04/21 13:49:25;;;;;;;4.30;2.53;;;16.90;99.90;;;;;;5080982;28;20449;-57